Time;durP1;ratioP1;P1;durP2;ratioP2;P2;SDS_P1;SDS_P2;PMS_P1;PMS_P2;Temp;Humidity;BMP_temperature;BMP_pressure;BME280_temperature;BME280_humidity;BME280_pressure;Samples;Min_cycle;Max_cycle;Signal;HPM_P1;HPM_P2
2022/02/13 00:01:24;;;;;;;17.57;6.53;;;;;;;;;;1713044;83;21083;-76
2022/02/13 00:03:51;;;;;;;12.98;6.15;;;;;;;;;;1713700;83;21563;-77
2022/02/13 00:06:18;;;;;;;10.55;4.70;;;;;;;;;;1712743;83;21513;-77
2022/02/13 00:08:44;;;;;;;10.58;4.58;;;;;;;;;;1712606;83;21021;-77
2022/02/13 00:11:10;;;;;;;9.68;5.03;;;;;;;;;;1726200;83;21534;-77
2022/02/13 00:13:36;;;;;;;9.95;4.22;;;;;;;;;;1711603;83;21024;-76
2022/02/13 00:16:03;;;;;;;8.40;4.87;;;;;;;;;;1726117;83;21040;-77
2022/02/13 00:18:30;;;;;;;13.55;6.25;;;;;;;;;;1703003;83;21113;-76
2022/02/13 00:20:57;;;;;;;11.80;5.75;;;;;;;;;;1691285;85;21077;-77
2022/02/13 00:23:23;;;;;;;11.80;5.50;;;;;;;;;;1686197;83;21055;-77
2022/02/13 00:25:49;;;;;;;12.47;5.83;;;;;;;;;;1679326;85;21134;-77
2022/02/13 00:28:16;;;;;;;13.60;6.50;;;;;;;;;;1665042;85;21139;-77
2022/02/13 00:30:46;;;;;;;16.65;6.83;;;;;;;;;;1692794;84;21048;-77
2022/02/13 00:33:09;;;;;;;17.25;7.90;;;;;;;;;;1676133;85;21061;-77
2022/02/13 00:35:35;;;;;;;26.68;9.60;;;;;;;;;;1668100;85;21090;-77
2022/02/13 00:38:02;;;;;;;23.62;9.50;;;;;;;;;;1696363;84;21613;-77
2022/02/13 00:40:29;;;;;;;25.60;9.43;;;;;;;;;;1696687;84;20984;-76
2022/02/13 00:42:55;;;;;;;22.55;8.05;;;;;;;;;;1696468;84;21086;-77
2022/02/13 00:45:21;;;;;;;17.82;7.95;;;;;;;;;;1697371;84;21518;-78
2022/02/13 00:47:48;;;;;;;16.32;7.25;;;;;;;;;;1671873;85;21098;-76
2022/02/13 00:50:14;;;;;;;11.10;5.78;;;;;;;;;;1666612;86;21046;-77
2022/02/13 00:52:40;;;;;;;9.90;4.50;;;;;;;;;;1697182;84;21051;-77
2022/02/13 00:55:07;;;;;;;9.75;4.80;;;;;;;;;;1663479;86;21505;-77
2022/02/13 00:57:33;;;;;;;10.82;5.53;;;;;;;;;;1667281;85;21012;-77
2022/02/13 00:59:58;;;;;;;13.78;5.40;;;;;;;;;;1674877;85;21111;-77
2022/02/13 01:02:25;;;;;;;8.30;4.72;;;;;;;;;;1694440;84;21532;-77
2022/02/13 01:04:51;;;;;;;13.18;5.62;;;;;;;;;;1695736;84;21050;-77
2022/02/13 01:07:19;;;;;;;13.18;5.45;;;;;;;;;;1696663;84;21058;-77
2022/02/13 01:09:45;;;;;;;12.63;5.03;;;;;;;;;;1692941;84;21156;-77
2022/02/13 01:12:11;;;;;;;14.53;5.80;;;;;;;;;;1710209;83;21067;-77
2022/02/13 01:14:39;;;;;;;19.48;6.72;;;;;;;;;;1716089;83;21033;-76
2022/02/13 01:17:04;;;;;;;14.45;6.30;;;;;;;;;;1677496;85;21022;-76
2022/02/13 01:19:31;;;;;;;20.23;5.80;;;;;;;;;;1713890;83;21073;-76
2022/02/13 01:22:00;;;;;;;12.98;4.87;;;;;;;;;;1714156;83;20991;-77
2022/02/13 01:24:25;;;;;;;11.05;4.53;;;;;;;;;;1677472;85;21116;-76
2022/02/13 01:26:51;;;;;;;10.78;4.33;;;;;;;;;;1716928;83;21054;-76
2022/02/13 01:29:17;;;;;;;13.53;5.45;;;;;;;;;;1714513;83;21021;-76
2022/02/13 01:31:43;;;;;;;12.53;5.37;;;;;;;;;;1684237;83;21045;-76
2022/02/13 01:34:10;;;;;;;11.68;4.87;;;;;;;;;;1709000;84;21036;-76
2022/02/13 01:36:37;;;;;;;8.45;4.22;;;;;;;;;;1712294;84;21052;-75
2022/02/13 01:39:03;;;;;;;9.78;4.72;;;;;;;;;;1712373;83;21056;-76
2022/02/13 01:41:29;;;;;;;10.70;5.50;;;;;;;;;;1708826;83;21063;-76
2022/02/13 01:43:56;;;;;;;8.30;4.58;;;;;;;;;;1712752;83;21032;-76
2022/02/13 01:46:22;;;;;;;10.23;5.25;;;;;;;;;;1709954;84;21012;-78
2022/02/13 01:48:48;;;;;;;10.63;5.35;;;;;;;;;;1708636;84;21564;-76
2022/02/13 01:51:14;;;;;;;12.78;5.60;;;;;;;;;;1711428;84;21052;-76
2022/02/13 01:53:40;;;;;;;15.45;6.28;;;;;;;;;;1712481;83;20999;-77
2022/02/13 01:56:07;;;;;;;15.08;6.28;;;;;;;;;;1717741;83;21034;-77
2022/02/13 01:58:34;;;;;;;12.10;5.92;;;;;;;;;;1716117;82;21080;-77
2022/02/13 02:03:48;;;;;;;11.40;5.50;;;;;;;;;;1713154;79;74736;-69
2022/02/13 02:06:15;;;;;;;11.68;5.03;;;;;;;;;;1683273;84;21003;-69
2022/02/13 02:08:42;;;;;;;14.83;5.35;;;;;;;;;;1706816;84;21032;-69
2022/02/13 02:11:07;;;;;;;13.72;5.33;;;;;;;;;;1706751;83;20984;-70
2022/02/13 02:13:34;;;;;;;11.95;5.60;;;;;;;;;;1705084;84;21051;-70
2022/02/13 02:16:01;;;;;;;14.28;6.03;;;;;;;;;;1704778;82;21553;-71
2022/02/13 02:18:27;;;;;;;10.82;5.50;;;;;;;;;;1703473;84;21015;-71
2022/02/13 02:20:58;;;;;;;24.27;8.35;;;;;;;;;;1704565;83;21603;-71
2022/02/13 02:23:24;;;;;;;17.77;6.67;;;;;;;;;;1704950;83;21575;-70
2022/02/13 02:25:51;;;;;;;15.85;5.80;;;;;;;;;;1705469;82;21519;-71
2022/02/13 02:28:17;;;;;;;10.98;5.60;;;;;;;;;;1704650;84;21036;-71
2022/02/13 02:30:43;;;;;;;18.37;6.40;;;;;;;;;;1703941;83;21582;-71
2022/02/13 02:33:11;;;;;;;13.32;5.40;;;;;;;;;;1704653;83;21029;-71
2022/02/13 02:35:37;;;;;;;10.38;5.00;;;;;;;;;;1717765;82;21609;-70
2022/02/13 02:38:03;;;;;;;9.73;4.87;;;;;;;;;;1705357;84;21029;-71
2022/02/13 02:40:29;;;;;;;12.30;4.70;;;;;;;;;;1703448;83;21486;-71
2022/02/13 02:42:55;;;;;;;9.83;5.05;;;;;;;;;;1703097;84;21274;-69
2022/02/13 02:45:21;;;;;;;17.15;6.50;;;;;;;;;;1704991;82;21561;-69
2022/02/13 02:47:48;;;;;;;11.60;5.72;;;;;;;;;;1706116;84;21044;-69
2022/02/13 02:50:14;;;;;;;8.65;3.95;;;;;;;;;;1706106;84;21051;-69
2022/02/13 02:52:40;;;;;;;8.90;3.22;;;;;;;;;;1706649;84;20996;-69
2022/02/13 02:55:07;;;;;;;12.05;4.72;;;;;;;;;;1706623;82;21542;-69
2022/02/13 02:57:34;;;;;;;11.38;5.03;;;;;;;;;;1703450;84;21015;-71
2022/02/13 03:00:00;;;;;;;9.88;4.60;;;;;;;;;;1703511;84;21059;-70
2022/02/13 03:02:28;;;;;;;13.62;4.67;;;;;;;;;;1704541;84;21087;-70
2022/02/13 03:04:54;;;;;;;10.53;3.92;;;;;;;;;;1702633;83;21120;-69
2022/02/13 03:07:20;;;;;;;8.45;3.95;;;;;;;;;;1703139;84;21036;-69
2022/02/13 03:09:47;;;;;;;10.88;4.15;;;;;;;;;;1703191;84;21103;-69
2022/02/13 03:12:13;;;;;;;9.40;4.10;;;;;;;;;;1691464;85;21060;-70
2022/02/13 03:14:40;;;;;;;6.97;3.62;;;;;;;;;;1690214;85;21041;-70
2022/02/13 03:17:08;;;;;;;8.93;4.17;;;;;;;;;;1690980;85;21045;-69
2022/02/13 03:19:36;;;;;;;8.78;4.40;;;;;;;;;;1690903;85;21072;-70
2022/02/13 03:22:02;;;;;;;7.22;3.72;;;;;;;;;;1703222;84;21080;-69
2022/02/13 03:25:53;;;;;;;5.80;3.47;;;;;;;;;;1800129;79;22854;-70
2022/02/13 03:28:19;;;;;;;7.80;3.87;;;;;;;;;;1758244;81;21000;-69
2022/02/13 03:30:45;;;;;;;6.00;4.00;;;;;;;;;;1757951;81;21649;-71
2022/02/13 03:33:11;;;;;;;6.62;3.40;;;;;;;;;;1758519;81;20997;-70
2022/02/13 03:35:38;;;;;;;8.95;4.80;;;;;;;;;;1772983;80;21492;-70
2022/02/13 03:38:04;;;;;;;7.17;3.58;;;;;;;;;;1790803;80;22146;-71
2022/02/13 03:40:30;;;;;;;6.85;3.65;;;;;;;;;;1761961;81;21026;-71
2022/02/13 03:42:57;;;;;;;7.37;3.67;;;;;;;;;;1780403;80;21076;-70
2022/02/13 03:45:23;;;;;;;9.08;4.47;;;;;;;;;;1793622;80;21503;-69
2022/02/13 03:47:49;;;;;;;9.83;4.15;;;;;;;;;;1793110;80;21004;-69
2022/02/13 03:50:15;;;;;;;8.95;4.22;;;;;;;;;;1791837;80;21543;-69
2022/02/13 03:52:41;;;;;;;8.00;3.80;;;;;;;;;;1772055;80;20989;-69
2022/02/13 03:55:08;;;;;;;7.33;3.87;;;;;;;;;;1766353;80;20989;-70
2022/02/13 03:57:35;;;;;;;9.68;4.10;;;;;;;;;;1773363;80;21060;-70
2022/02/13 04:00:01;;;;;;;9.60;4.67;;;;;;;;;;1757229;80;21063;-71
2022/02/13 04:02:29;;;;;;;6.10;3.75;;;;;;;;;;1788881;80;21012;-69
2022/02/13 04:04:57;;;;;;;8.38;3.98;;;;;;;;;;1763996;79;22312;-69
2022/02/13 04:07:23;;;;;;;8.70;3.90;;;;;;;;;;1761919;81;21071;-69
2022/02/13 04:09:49;;;;;;;9.38;4.10;;;;;;;;;;1758029;81;21092;-69
2022/02/13 04:12:15;;;;;;;6.80;3.58;;;;;;;;;;1762975;80;21035;-69
2022/02/13 04:14:41;;;;;;;8.25;3.52;;;;;;;;;;1788113;80;21032;-69
2022/02/13 04:17:08;;;;;;;5.97;3.37;;;;;;;;;;1788169;80;21484;-70
2022/02/13 04:19:35;;;;;;;5.80;3.65;;;;;;;;;;1787765;80;21564;-70
2022/02/13 04:22:01;;;;;;;8.50;3.62;;;;;;;;;;1772773;80;21475;-70
2022/02/13 04:24:27;;;;;;;8.80;4.10;;;;;;;;;;1762011;81;21520;-71
2022/02/13 04:26:53;;;;;;;9.05;4.22;;;;;;;;;;1745601;82;21481;-70
2022/02/13 04:29:21;;;;;;;7.25;4.33;;;;;;;;;;1745689;82;21075;-70
2022/02/13 04:31:47;;;;;;;8.83;4.67;;;;;;;;;;1726979;82;21055;-69
2022/02/13 04:34:13;;;;;;;7.15;4.45;;;;;;;;;;1718422;83;21534;-69
2022/02/13 04:36:39;;;;;;;9.73;4.85;;;;;;;;;;1717971;83;21048;-69
2022/02/13 04:39:05;;;;;;;9.85;4.28;;;;;;;;;;1717859;83;21495;-69
2022/02/13 04:41:31;;;;;;;8.85;4.83;;;;;;;;;;1718004;83;20983;-69
2022/02/13 04:43:57;;;;;;;6.95;4.10;;;;;;;;;;1717953;83;21016;-69
2022/02/13 04:46:23;;;;;;;6.83;3.85;;;;;;;;;;1717885;83;21534;-69
2022/02/13 04:48:49;;;;;;;6.65;4.47;;;;;;;;;;1717736;83;21075;-70
2022/02/13 04:51:16;;;;;;;11.78;6.20;;;;;;;;;;1717668;83;21020;-69
2022/02/13 04:53:41;;;;;;;20.50;8.30;;;;;;;;;;1718051;83;21039;-69
2022/02/13 04:56:07;;;;;;;16.62;7.35;;;;;;;;;;1717724;83;21103;-69
2022/02/13 04:58:35;;;;;;;18.85;7.72;;;;;;;;;;1718020;83;21051;-69
2022/02/13 05:01:01;;;;;;;17.02;7.17;;;;;;;;;;1717959;83;21526;-70
2022/02/13 05:03:27;;;;;;;16.57;7.45;;;;;;;;;;1719113;83;21083;-69
2022/02/13 05:05:54;;;;;;;15.32;7.87;;;;;;;;;;1695224;85;21005;-69
2022/02/13 05:08:20;;;;;;;13.62;6.92;;;;;;;;;;1676551;85;21056;-70
2022/02/13 05:10:47;;;;;;;16.07;7.72;;;;;;;;;;1717660;83;21043;-69
2022/02/13 05:13:13;;;;;;;19.00;8.78;;;;;;;;;;1726287;83;21540;-70
2022/02/13 05:15:39;;;;;;;26.48;10.78;;;;;;;;;;1718351;83;21079;-70
2022/02/13 05:18:05;;;;;;;19.98;8.15;;;;;;;;;;1719789;83;21598;-70
2022/02/13 05:20:32;;;;;;;20.55;8.18;;;;;;;;;;1698472;84;21009;-70
2022/02/13 05:22:58;;;;;;;11.50;6.00;;;;;;;;;;1675407;86;21080;-70
2022/02/13 05:25:24;;;;;;;10.93;5.62;;;;;;;;;;1666576;85;21025;-70
2022/02/13 05:27:50;;;;;;;11.85;5.08;;;;;;;;;;1706485;84;21045;-70
2022/02/13 05:30:16;;;;;;;11.50;5.60;;;;;;;;;;1742730;81;21068;-70
2022/02/13 05:32:42;;;;;;;17.02;6.97;;;;;;;;;;1742001;82;21069;-70
2022/02/13 05:35:09;;;;;;;15.13;6.85;;;;;;;;;;1741993;82;21588;-70
2022/02/13 05:37:36;;;;;;;20.92;8.95;;;;;;;;;;1719836;82;21040;-70
2022/02/13 05:40:02;;;;;;;16.35;7.37;;;;;;;;;;1723611;81;21054;-71
2022/02/13 05:42:29;;;;;;;21.90;9.15;;;;;;;;;;1773837;81;21624;-69
2022/02/13 05:44:55;;;;;;;18.35;7.37;;;;;;;;;;1773668;81;21096;-69
2022/02/13 05:47:21;;;;;;;12.13;6.28;;;;;;;;;;1773924;81;21088;-69
2022/02/13 05:49:47;;;;;;;13.35;5.95;;;;;;;;;;1773329;81;21055;-69
2022/02/13 05:52:13;;;;;;;16.30;7.03;;;;;;;;;;1748844;81;21025;-70
2022/02/13 05:54:39;;;;;;;12.33;7.15;;;;;;;;;;1741751;82;21576;-70
2022/02/13 05:57:05;;;;;;;18.62;8.90;;;;;;;;;;1742048;82;21057;-70
2022/02/13 05:59:32;;;;;;;13.53;6.60;;;;;;;;;;1742015;82;21041;-70
2022/02/13 06:01:58;;;;;;;13.90;6.92;;;;;;;;;;1747668;82;20917;-70
2022/02/13 06:04:24;;;;;;;17.48;7.42;;;;;;;;;;1747873;82;21071;-69
2022/02/13 06:06:51;;;;;;;14.58;7.20;;;;;;;;;;1748069;82;21034;-70
2022/02/13 06:09:18;;;;;;;13.13;5.90;;;;;;;;;;1748097;82;21460;-69
2022/02/13 06:11:44;;;;;;;14.05;6.08;;;;;;;;;;1748060;81;21012;-70
2022/02/13 06:14:10;;;;;;;12.25;5.67;;;;;;;;;;1737882;82;21608;-70
2022/02/13 06:16:37;;;;;;;15.88;6.95;;;;;;;;;;1737242;82;21104;-69
2022/02/13 06:19:03;;;;;;;11.22;6.15;;;;;;;;;;1737216;82;21021;-69
2022/02/13 06:21:29;;;;;;;16.57;7.42;;;;;;;;;;1741165;82;21049;-69
2022/02/13 06:23:55;;;;;;;15.00;7.28;;;;;;;;;;1767800;81;21516;-69
2022/02/13 06:26:21;;;;;;;11.50;6.10;;;;;;;;;;1757355;81;21075;-69
2022/02/13 06:28:47;;;;;;;10.10;5.78;;;;;;;;;;1760053;81;21072;-70
2022/02/13 06:31:13;;;;;;;11.43;7.00;;;;;;;;;;1781051;80;21037;-70
2022/02/13 06:33:39;;;;;;;14.23;7.17;;;;;;;;;;1773021;80;21040;-70
2022/02/13 06:36:06;;;;;;;14.80;6.67;;;;;;;;;;1759101;81;21028;-71
2022/02/13 06:38:32;;;;;;;13.70;7.22;;;;;;;;;;1760835;80;21033;-70
2022/02/13 06:40:58;;;;;;;13.00;6.22;;;;;;;;;;1757450;80;21096;-70
2022/02/13 06:43:24;;;;;;;13.80;6.30;;;;;;;;;;1753095;80;21654;-68
2022/02/13 06:45:50;;;;;;;13.68;6.40;;;;;;;;;;1775141;80;21110;-69
2022/02/13 06:48:16;;;;;;;11.70;5.70;;;;;;;;;;1759439;81;21041;-69
2022/02/13 06:50:42;;;;;;;10.38;6.17;;;;;;;;;;1761013;81;20981;-69
2022/02/13 06:53:08;;;;;;;10.20;5.15;;;;;;;;;;1754104;81;21025;-69
2022/02/13 06:55:33;;;;;;;10.60;6.20;;;;;;;;;;1756763;81;21522;-69
2022/02/13 06:57:59;;;;;;;10.08;5.72;;;;;;;;;;1769001;80;20991;-69
2022/02/13 07:00:25;;;;;;;11.57;5.50;;;;;;;;;;1761811;80;21008;-69
2022/02/13 07:02:51;;;;;;;10.55;6.40;;;;;;;;;;1759666;80;21643;-70
2022/02/13 07:05:19;;;;;;;9.08;5.20;;;;;;;;;;1756156;80;20993;-69
2022/02/13 07:07:46;;;;;;;15.48;8.20;;;;;;;;;;1753000;80;21084;-71
2022/02/13 07:10:12;;;;;;;13.08;6.03;;;;;;;;;;1756620;80;20981;-71
2022/02/13 07:12:39;;;;;;;11.20;6.12;;;;;;;;;;1760718;81;21555;-70
2022/02/13 07:15:07;;;;;;;12.95;6.20;;;;;;;;;;1724044;82;21044;-70
2022/02/13 07:17:35;;;;;;;13.18;6.67;;;;;;;;;;1724403;83;21032;-71
2022/02/13 07:20:00;;;;;;;11.40;6.28;;;;;;;;;;1723429;83;21036;-71
2022/02/13 07:22:26;;;;;;;13.88;6.00;;;;;;;;;;1711940;82;21068;-71
2022/02/13 07:24:52;;;;;;;11.15;6.35;;;;;;;;;;1660106;86;21058;-71
2022/02/13 07:27:18;;;;;;;12.65;6.22;;;;;;;;;;1640202;87;21109;-70
2022/02/13 07:29:46;;;;;;;14.10;5.95;;;;;;;;;;1641059;87;21086;-71
2022/02/13 07:32:12;;;;;;;12.93;6.80;;;;;;;;;;1682231;85;21175;-71
2022/02/13 07:34:38;;;;;;;13.55;6.10;;;;;;;;;;1681822;85;21077;-72
2022/02/13 07:37:06;;;;;;;12.50;6.53;;;;;;;;;;1671487;86;21301;-70
2022/02/13 07:39:32;;;;;;;17.52;7.22;;;;;;;;;;1682020;85;21142;-71
2022/02/13 07:41:59;;;;;;;12.10;5.75;;;;;;;;;;1672195;85;21080;-71
2022/02/13 07:44:25;;;;;;;10.75;5.75;;;;;;;;;;1674872;85;21047;-71
2022/02/13 07:46:52;;;;;;;10.20;5.05;;;;;;;;;;1654177;85;21086;-71
2022/02/13 07:49:19;;;;;;;12.58;6.10;;;;;;;;;;1655349;86;21561;-71
2022/02/13 07:51:44;;;;;;;12.90;6.55;;;;;;;;;;1655115;86;21069;-71
2022/02/13 07:54:10;;;;;;;12.63;5.78;;;;;;;;;;1654747;86;21077;-71
2022/02/13 07:56:37;;;;;;;9.38;5.25;;;;;;;;;;1663716;85;21096;-71
2022/02/13 07:59:03;;;;;;;8.38;4.85;;;;;;;;;;1648042;85;21061;-71
2022/02/13 08:01:28;;;;;;;8.05;5.00;;;;;;;;;;1660340;85;21085;-72
2022/02/13 08:03:54;;;;;;;12.45;5.58;;;;;;;;;;1659386;85;21131;-71
2022/02/13 08:06:20;;;;;;;9.43;4.80;;;;;;;;;;1645753;85;21088;-71
2022/02/13 08:08:48;;;;;;;9.68;5.03;;;;;;;;;;1667693;86;21652;-72
2022/02/13 08:11:15;;;;;;;6.28;4.00;;;;;;;;;;1678641;85;21022;-71
2022/02/13 08:13:42;;;;;;;7.85;3.70;;;;;;;;;;1690359;85;21049;-72
2022/02/13 08:16:08;;;;;;;8.70;3.95;;;;;;;;;;1679509;84;21611;-73
2022/02/13 08:18:34;;;;;;;8.05;3.95;;;;;;;;;;1673287;85;21119;-72
2022/02/13 08:21:03;;;;;;;5.60;3.42;;;;;;;;;;1640631;86;21105;-73
2022/02/13 08:23:28;;;;;;;9.00;4.17;;;;;;;;;;1672875;85;21608;-72
2022/02/13 08:25:54;;;;;;;8.30;4.08;;;;;;;;;;1671428;84;21069;-72
2022/02/13 08:28:20;;;;;;;5.33;3.45;;;;;;;;;;1747438;81;21524;-72
2022/02/13 08:30:46;;;;;;;7.95;4.47;;;;;;;;;;1745788;80;21037;-72
2022/02/13 08:33:12;;;;;;;8.05;4.53;;;;;;;;;;1742005;82;21033;-72
2022/02/13 08:35:39;;;;;;;8.40;4.85;;;;;;;;;;1737692;81;21032;-72
2022/02/13 08:38:05;;;;;;;5.70;3.98;;;;;;;;;;1742925;81;21205;-72
2022/02/13 08:40:31;;;;;;;8.75;4.40;;;;;;;;;;1725228;82;21052;-68
2022/02/13 08:42:58;;;;;;;9.13;4.90;;;;;;;;;;1748404;80;21060;-70
2022/02/13 08:45:25;;;;;;;8.03;4.28;;;;;;;;;;1748287;80;21025;-67
2022/02/13 08:47:51;;;;;;;8.98;4.20;;;;;;;;;;1746604;81;21084;-73
2022/02/13 08:50:17;;;;;;;5.37;2.85;;;;;;;;;;1742669;82;21611;-73
2022/02/13 08:52:43;;;;;;;4.50;3.10;;;;;;;;;;1741747;82;21049;-74
2022/02/13 08:55:13;;;;;;;5.05;2.72;;;;;;;;;;1741919;82;21166;-74
2022/02/13 08:57:37;;;;;;;6.80;3.42;;;;;;;;;;1738801;82;21518;-73
2022/02/13 09:00:06;;;;;;;8.30;3.12;;;;;;;;;;1741826;82;21010;-74
2022/02/13 09:02:33;;;;;;;4.95;3.02;;;;;;;;;;1718587;82;21074;-73
2022/02/13 09:04:59;;;;;;;4.70;2.87;;;;;;;;;;1748132;81;21008;-75
2022/02/13 09:07:25;;;;;;;4.72;2.70;;;;;;;;;;1743486;81;21519;-74
2022/02/13 09:09:51;;;;;;;3.30;2.08;;;;;;;;;;1750950;81;21061;-74
2022/02/13 09:12:19;;;;;;;6.75;3.05;;;;;;;;;;1744676;81;20977;-73
2022/02/13 09:14:46;;;;;;;6.12;3.17;;;;;;;;;;1746453;82;21019;-74
2022/02/13 09:17:12;;;;;;;11.03;4.87;;;;;;;;;;1747221;82;21056;-74
2022/02/13 09:19:40;;;;;;;5.70;2.90;;;;;;;;;;1748153;82;21675;-73
2022/02/13 09:22:08;;;;;;;5.40;2.80;;;;;;;;;;1742671;82;21022;-74
2022/02/13 09:24:35;;;;;;;6.53;3.08;;;;;;;;;;1741624;82;21100;-73
2022/02/13 09:27:01;;;;;;;4.70;2.87;;;;;;;;;;1747782;82;21532;-74
2022/02/13 09:29:27;;;;;;;5.83;2.92;;;;;;;;;;1715589;82;21076;-74
2022/02/13 09:31:55;;;;;;;6.10;3.42;;;;;;;;;;1755959;81;21141;-74
2022/02/13 09:34:25;;;;;;;6.53;3.20;;;;;;;;;;1771573;81;21009;-73
2022/02/13 09:36:49;;;;;;;7.80;3.72;;;;;;;;;;1763102;81;21005;-74
2022/02/13 09:39:14;;;;;;;3.67;2.87;;;;;;;;;;1751301;82;21049;-73
2022/02/13 09:41:41;;;;;;;4.37;2.65;;;;;;;;;;1751224;81;21592;-74
2022/02/13 09:44:09;;;;;;;6.58;3.52;;;;;;;;;;1751276;81;21068;-73
2022/02/13 09:46:37;;;;;;;5.75;3.22;;;;;;;;;;1751336;81;21540;-73
2022/02/13 09:49:03;;;;;;;3.60;2.22;;;;;;;;;;1752036;82;21056;-73
2022/02/13 09:51:30;;;;;;;4.08;2.87;;;;;;;;;;1757030;81;20961;-73
2022/02/13 09:53:56;;;;;;;6.47;3.30;;;;;;;;;;1759070;81;21491;-73
2022/02/13 09:56:22;;;;;;;5.80;3.12;;;;;;;;;;1762379;80;21008;-73
2022/02/13 09:58:48;;;;;;;5.67;2.85;;;;;;;;;;1755829;81;21034;-74
2022/02/13 10:01:14;;;;;;;7.03;4.12;;;;;;;;;;1751739;81;20957;-75
2022/02/13 10:03:42;;;;;;;5.10;3.12;;;;;;;;;;1774283;81;21043;-75
2022/02/13 10:06:15;;;;;;;5.37;2.80;;;;;;;;;;1740167;82;21508;-73
2022/02/13 10:08:42;;;;;;;6.15;3.60;;;;;;;;;;1750192;82;21065;-74
2022/02/13 10:11:28;;;;;;;7.70;3.77;;;;;;;;;;1773765;81;21013;-75
2022/02/13 10:14:03;;;;;;;5.67;3.10;;;;;;;;;;1766543;81;20997;-75
2022/02/13 10:16:32;;;;;;;5.25;2.90;;;;;;;;;;1751067;81;21013;-76
2022/02/13 10:19:07;;;;;;;5.22;3.08;;;;;;;;;;1763579;81;21600;-76
2022/02/13 10:21:35;;;;;;;5.83;3.37;;;;;;;;;;1756202;82;21032;-76
2022/02/13 10:24:19;;;;;;;5.72;3.05;;;;;;;;;;1731108;81;21072;-75
2022/02/13 10:26:48;;;;;;;5.22;2.77;;;;;;;;;;1718639;83;21052;-76
2022/02/13 10:29:14;;;;;;;6.37;4.00;;;;;;;;;;1717665;83;21518;-76
2022/02/13 10:31:41;;;;;;;3.87;2.67;;;;;;;;;;1717625;83;21540;-76
2022/02/13 10:34:07;;;;;;;4.00;3.15;;;;;;;;;;1717629;83;21531;-75
2022/02/13 10:36:40;;;;;;;4.00;2.52;;;;;;;;;;1742212;82;21057;-76
2022/02/13 10:39:18;;;;;;;6.22;3.37;;;;;;;;;;1747711;82;20997;-75
2022/02/13 10:41:44;;;;;;;6.95;3.15;;;;;;;;;;1746954;82;21017;-77
2022/02/13 10:44:10;;;;;;;6.03;3.50;;;;;;;;;;1747433;82;21003;-75
2022/02/13 10:46:37;;;;;;;7.22;4.37;;;;;;;;;;1747160;82;21608;-75
2022/02/13 10:49:04;;;;;;;4.70;2.85;;;;;;;;;;1747544;82;21533;-76
2022/02/13 10:51:31;;;;;;;4.05;2.70;;;;;;;;;;1747202;82;21092;-77
2022/02/13 10:53:57;;;;;;;4.20;2.62;;;;;;;;;;1747461;82;21036;-76
2022/02/13 10:56:23;;;;;;;3.33;2.37;;;;;;;;;;1756566;80;21032;-76
2022/02/13 10:58:50;;;;;;;5.83;2.92;;;;;;;;;;1746130;80;21029;-78
2022/02/13 11:01:18;;;;;;;4.67;2.52;;;;;;;;;;1783923;79;21754;-76
2022/02/13 11:03:48;;;;;;;5.35;2.12;;;;;;;;;;1775717;80;21024;-76
2022/02/13 11:06:14;;;;;;;5.33;3.40;;;;;;;;;;1742225;81;21013;-70
2022/02/13 11:08:51;;;;;;;5.37;2.90;;;;;;;;;;1748399;81;21010;-68
2022/02/13 11:11:17;;;;;;;4.00;2.70;;;;;;;;;;1736869;81;21036;-68
2022/02/13 11:13:44;;;;;;;5.22;2.92;;;;;;;;;;1743828;82;21037;-68
2022/02/13 11:16:29;;;;;;;4.05;2.70;;;;;;;;;;1746942;81;20969;-69
2022/02/13 11:18:58;;;;;;;4.62;3.27;;;;;;;;;;1748506;81;21414;-68
2022/02/13 11:21:27;;;;;;;4.00;2.37;;;;;;;;;;1746458;80;21065;-64
2022/02/13 11:23:53;;;;;;;5.62;3.00;;;;;;;;;;1766089;81;21056;-65
2022/02/13 11:26:27;;;;;;;3.85;2.12;;;;;;;;;;1745225;81;20982;-65
2022/02/13 11:28:55;;;;;;;5.45;3.02;;;;;;;;;;1746992;82;21575;-64
2022/02/13 11:31:39;;;;;;;5.70;2.55;;;;;;;;;;1745557;81;21548;-65
2022/02/13 11:34:03;;;;;;;4.50;2.85;;;;;;;;;;1743075;81;21023;-65
2022/02/13 11:36:40;;;;;;;3.37;2.22;;;;;;;;;;1744138;81;21100;-65
2022/02/13 11:39:07;;;;;;;5.87;2.83;;;;;;;;;;1733769;82;20998;-65
2022/02/13 11:41:47;;;;;;;3.40;2.50;;;;;;;;;;1742216;81;21017;-64
2022/02/13 11:44:32;;;;;;;4.62;2.35;;;;;;;;;;1757233;80;21009;-65
2022/02/13 11:46:58;;;;;;;5.15;2.50;;;;;;;;;;1753240;80;21001;-65
2022/02/13 11:49:24;;;;;;;4.67;2.67;;;;;;;;;;1747508;82;21652;-65
2022/02/13 11:51:53;;;;;;;4.10;2.90;;;;;;;;;;1747646;82;20980;-65
2022/02/13 11:54:47;;;;;;;5.37;2.25;;;;;;;;;;1746972;81;21458;-66
2022/02/13 11:57:19;;;;;;;6.15;3.27;;;;;;;;;;1743170;81;21560;-64
2022/02/13 11:59:55;;;;;;;7.62;4.12;;;;;;;;;;1743655;80;21528;-65
2022/02/13 12:02:32;;;;;;;5.62;2.60;;;;;;;;;;1746592;80;21053;-66
2022/02/13 12:05:15;;;;;;;4.28;2.90;;;;;;;;;;1739975;82;21044;-67
2022/02/13 12:07:46;;;;;;;5.25;3.15;;;;;;;;;;1747838;81;21033;-64
2022/02/13 12:10:12;;;;;;;3.67;2.60;;;;;;;;;;1767401;81;20994;-65
2022/02/13 12:12:40;;;;;;;2.87;2.00;;;;;;;;;;1752610;81;21045;-65
2022/02/13 12:15:06;;;;;;;3.87;2.17;;;;;;;;;;1742864;82;21022;-65
2022/02/13 12:17:33;;;;;;;5.62;3.27;;;;;;;;;;1711953;82;21560;-66
2022/02/13 12:20:01;;;;;;;4.80;2.90;;;;;;;;;;1677138;84;21053;-66
2022/02/13 12:22:27;;;;;;;4.53;3.00;;;;;;;;;;1742619;80;21042;-65
2022/02/13 12:24:54;;;;;;;4.12;2.55;;;;;;;;;;1750760;81;21054;-65
2022/02/13 12:27:22;;;;;;;6.72;2.87;;;;;;;;;;1746856;82;21062;-66
2022/02/13 12:29:54;;;;;;;4.95;2.83;;;;;;;;;;1751359;82;21604;-67
2022/02/13 12:32:18;;;;;;;5.05;3.45;;;;;;;;;;1753946;80;21045;-67
2022/02/13 12:34:46;;;;;;;7.33;3.17;;;;;;;;;;1757064;81;20993;-65
2022/02/13 12:37:12;;;;;;;6.28;3.60;;;;;;;;;;1749926;80;21009;-65
2022/02/13 12:39:38;;;;;;;5.30;2.72;;;;;;;;;;1754761;80;21557;-66
2022/02/13 12:42:04;;;;;;;5.28;3.17;;;;;;;;;;1754315;81;21453;-66
2022/02/13 12:44:32;;;;;;;5.95;3.12;;;;;;;;;;1755797;82;21014;-65
2022/02/13 12:46:58;;;;;;;4.05;2.75;;;;;;;;;;1754449;80;21004;-66
2022/02/13 12:49:24;;;;;;;4.62;2.83;;;;;;;;;;1756049;82;21337;-67
2022/02/13 12:51:50;;;;;;;5.60;3.37;;;;;;;;;;1763841;80;21006;-66
2022/02/13 12:54:18;;;;;;;6.25;3.52;;;;;;;;;;1754184;82;21586;-65
2022/02/13 12:56:44;;;;;;;4.03;2.67;;;;;;;;;;1755545;82;20984;-66
2022/02/13 12:59:10;;;;;;;5.03;3.08;;;;;;;;;;1755465;82;21031;-65
2022/02/13 13:01:37;;;;;;;5.35;2.75;;;;;;;;;;1755578;80;21537;-65
2022/02/13 13:04:03;;;;;;;5.80;3.65;;;;;;;;;;1751510;82;21516;-65
2022/02/13 13:06:32;;;;;;;5.50;3.33;;;;;;;;;;1719988;82;21038;-64
2022/02/13 13:08:58;;;;;;;9.40;5.08;;;;;;;;;;1748933;82;21043;-66
2022/02/13 13:11:29;;;;;;;4.65;2.87;;;;;;;;;;1752681;82;21074;-66
2022/02/13 13:13:56;;;;;;;6.03;3.75;;;;;;;;;;1736167;82;21085;-67
2022/02/13 13:16:24;;;;;;;6.55;3.47;;;;;;;;;;1730333;82;21175;-65
2022/02/13 13:18:52;;;;;;;5.40;3.47;;;;;;;;;;1721580;82;21019;-66
2022/02/13 13:21:21;;;;;;;5.40;3.00;;;;;;;;;;1719728;83;21518;-65
2022/02/13 13:23:57;;;;;;;5.58;3.47;;;;;;;;;;1718605;83;21070;-65
2022/02/13 13:26:23;;;;;;;6.40;4.03;;;;;;;;;;1684772;83;21014;-65
2022/02/13 13:28:50;;;;;;;8.18;3.70;;;;;;;;;;1783084;80;21095;-65
2022/02/13 13:31:16;;;;;;;5.33;2.50;;;;;;;;;;1784251;80;21036;-66
2022/02/13 13:33:42;;;;;;;5.67;3.75;;;;;;;;;;1741006;80;21509;-65
2022/02/13 13:36:08;;;;;;;4.40;2.70;;;;;;;;;;1739607;82;21089;-65
2022/02/13 13:38:34;;;;;;;5.28;3.30;;;;;;;;;;1753946;80;21001;-66
2022/02/13 13:41:04;;;;;;;7.40;4.80;;;;;;;;;;1746282;80;21034;-66
2022/02/13 13:43:30;;;;;;;8.00;3.80;;;;;;;;;;1774596;80;21037;-65
2022/02/13 13:45:56;;;;;;;7.35;3.90;;;;;;;;;;1764862;80;21540;-65
2022/02/13 13:48:22;;;;;;;7.33;3.02;;;;;;;;;;1761391;80;21037;-65
2022/02/13 13:50:49;;;;;;;6.37;3.90;;;;;;;;;;1745107;82;21484;-65
2022/02/13 13:53:16;;;;;;;4.12;3.08;;;;;;;;;;1759201;81;21481;-64
2022/02/13 13:55:43;;;;;;;5.80;3.30;;;;;;;;;;1754008;81;21013;-67
2022/02/13 13:58:10;;;;;;;6.65;3.67;;;;;;;;;;1749021;80;21057;-65
2022/02/13 14:00:36;;;;;;;4.20;2.70;;;;;;;;;;1744430;80;21338;-65
2022/02/13 14:03:02;;;;;;;6.25;3.42;;;;;;;;;;1742369;81;21012;-65
2022/02/13 14:05:31;;;;;;;6.75;4.62;;;;;;;;;;1748380;80;20985;-66
2022/02/13 14:07:57;;;;;;;7.05;3.20;;;;;;;;;;1745986;80;21022;-65
2022/02/13 14:10:24;;;;;;;5.55;3.92;;;;;;;;;;1742051;82;21025;-65
2022/02/13 14:12:52;;;;;;;4.97;3.27;;;;;;;;;;1744509;80;21072;-65
2022/02/13 14:15:19;;;;;;;5.67;3.75;;;;;;;;;;1733298;82;21030;-65
2022/02/13 14:17:44;;;;;;;6.17;3.37;;;;;;;;;;1743043;81;21046;-66
2022/02/13 14:20:10;;;;;;;5.25;3.30;;;;;;;;;;1743748;81;20984;-64
2022/02/13 14:22:37;;;;;;;7.75;3.83;;;;;;;;;;1709414;82;21612;-63
2022/02/13 14:25:03;;;;;;;6.85;3.85;;;;;;;;;;1714479;82;21048;-64
2022/02/13 14:27:29;;;;;;;7.08;4.30;;;;;;;;;;1720059;82;21037;-63
2022/02/13 14:29:55;;;;;;;9.40;4.70;;;;;;;;;;1725305;82;20986;-64
2022/02/13 14:32:21;;;;;;;5.53;3.50;;;;;;;;;;1716109;82;21029;-63
2022/02/13 14:34:48;;;;;;;8.23;4.90;;;;;;;;;;1721963;82;21011;-63
2022/02/13 14:37:15;;;;;;;6.33;3.52;;;;;;;;;;1690284;83;21034;-63
2022/02/13 14:39:41;;;;;;;8.43;4.00;;;;;;;;;;1684603;83;21030;-64
2022/02/13 14:42:07;;;;;;;5.75;3.45;;;;;;;;;;1694382;83;20980;-64